Aérodrome :
LOGIN :

S'inscrire | Disclaimer

   EN    FR    IT 

 










Légende :    VFR   VFR Marginal   IFR   IFR Intensif   IFR Très Intensif
Visi : 
Plafond : 
>= 8 km
>= 3000ft
5 à 8 km
1000 à 3000 ft
1500m à 5 km
500 à 1000 ft
800 à 1500m
200 à 500 ft
< 800m
< 200 ft
Symboles :   Orages  Brouillard  Fortes neiges  Fortes précipitations  Vent > 20 kt
SIGMETs :   Divers  Orages  Givrage  Turbulence  Onde Orograph.  Cendres Volcan.






- Altitude de l'aérodrome : 2356 ft


LZTT - Poprad Tatry

DERNIER METAR :
  • 020600Z VRB02KT 9999 FEW040 BKN050 05/04 Q1010 NOSIG

METARs EXPIRÉS :
  • 020530Z VRB02KT 9999 FEW040 BKN050 05/04 Q1010
  • 020500Z 15002KT 9999 FEW020 BKN050 04/04 Q1010
  • 020430Z 27003KT 9999 FEW020 BKN053 04/04 Q1010
  • 012100Z 31003KT 260V340 9999 FEW026 BKN040 06/05 Q1012
  • 020400Z 26003KT 9999 FEW020 BKN053 04/04 Q1010
  • 020330Z VRB01KT 9999 FEW020 BKN053 04/03 Q1010
  • 020300Z 27002KT 9999 FEW020 SCT053 04/03 Q1010
  • 020230Z VRB01KT 9999 FEW020 BKN053 05/04 Q1010
  • 020200Z VRB02KT 9999 FEW020 BKN053 05/04 Q1010
  • 020130Z VRB01KT 9999 FEW020 BKN053 05/04 Q1011
  • 020100Z 22003KT 160V260 9999 FEW020 BKN050 06/05 Q1011

TAF TAF LZTT
Valide du 02 à 06h jusqu'au 03 à 06h UTC


020515Z 0206/0306 VRB02KT 9999 FEW020 BKN040
TEMPO 0208/0218 3500 -RA BR BKN007 OVC016
TEMPO 0218/0306 1200 BR BKN007
PROB30
TEMPO 0300/0306 0300 FG BKN002



MET'MAP, la Météo Aéronautique d'un coup d'oeil ! - Copyright ORBIFLY Décembre 2007 - Disclaimer

ORBIFLY MET'MAP TEAM :

Programmation & Développement : Alexandra Zaïnal
Sur une idée originale de : Baudouin d'Aumeries
Soutien technique & logistique : Manuel Goepfert
Assistance : Marc-Olivier Méhu




SOURCES & CREDITS :

   NOAA